Time;durP1;ratioP1;P1;durP2;ratioP2;P2;SDS_P1;SDS_P2;PMS_P1;PMS_P2;Temp;Humidity;BMP_temperature;BMP_pressure;BME280_temperature;BME280_humidity;BME280_pressure;Samples;Min_cycle;Max_cycle;Signal;HPM_P1;HPM_P2
2022/12/02 00:02:03;;;;;;;39.60;27.13;;;3.00;99.90;;;;;;5005397;28;20221;-65
2022/12/02 00:04:28;;;;;;;49.30;30.43;;;3.00;99.90;;;;;;5005727;28;20287;-64
2022/12/02 00:06:56;;;;;;;48.93;28.67;;;3.10;99.90;;;;;;5005058;28;20283;-67
2022/12/02 00:09:27;;;;;;;43.27;28.37;;;3.10;99.90;;;;;;5007263;28;20198;-67
2022/12/02 00:11:52;;;;;;;49.60;29.07;;;3.20;99.90;;;;;;5006611;28;20621;-68
2022/12/02 00:14:23;;;;;;;46.50;29.20;;;3.20;99.90;;;;;;5005259;28;20903;-63
2022/12/02 00:16:49;;;;;;;43.53;27.53;;;3.20;99.90;;;;;;5004037;28;20689;-63
2022/12/02 00:19:14;;;;;;;42.67;27.07;;;3.20;99.90;;;;;;5009126;28;20206;-65
2022/12/02 00:21:40;;;;;;;43.50;26.33;;;3.30;99.90;;;;;;5009453;28;20206;-64
2022/12/02 00:24:05;;;;;;;41.10;26.83;;;3.30;99.90;;;;;;5005817;28;20209;-64
2022/12/02 00:26:31;;;;;;;42.33;26.50;;;3.20;99.90;;;;;;5003402;28;20566;-63
2022/12/02 00:28:56;;;;;;;47.20;27.87;;;3.20;99.90;;;;;;5005414;28;20222;-65
2022/12/02 00:31:22;;;;;;;45.93;28.63;;;3.30;99.90;;;;;;5004611;28;20227;-62
2022/12/02 00:33:47;;;;;;;47.43;28.33;;;3.30;99.90;;;;;;5002667;28;20330;-63
2022/12/02 00:36:13;;;;;;;46.17;28.27;;;3.40;99.90;;;;;;5006157;28;20255;-63
2022/12/02 00:38:38;;;;;;;43.93;28.00;;;3.40;99.90;;;;;;5007541;28;20192;-63
2022/12/02 00:41:04;;;;;;;48.50;30.23;;;3.40;99.90;;;;;;5011152;28;20201;-64
2022/12/02 00:46:31;;;;;;;44.63;29.27;;;3.40;99.90;;;;;;5011581;28;20411;-65
2022/12/02 00:48:58;;;;;;;43.83;28.70;;;3.30;99.90;;;;;;5006855;28;20218;-64
2022/12/02 00:51:24;;;;;;;41.60;26.70;;;3.30;99.90;;;;;;5010527;28;20651;-65
2022/12/02 00:53:50;;;;;;;44.30;28.43;;;3.30;99.90;;;;;;5010191;28;20243;-63
2022/12/02 00:56:15;;;;;;;47.70;29.87;;;3.20;99.90;;;;;;5007098;28;20227;-63
2022/12/02 00:58:41;;;;;;;43.37;27.37;;;3.30;99.90;;;;;;5008348;28;20203;-64
2022/12/02 01:01:06;;;;;;;40.27;27.80;;;3.30;99.90;;;;;;5009024;28;20217;-63
2022/12/02 01:03:32;;;;;;;44.80;27.53;;;3.30;99.90;;;;;;5009262;28;20245;-65
2022/12/02 01:05:58;;;;;;;51.43;29.93;;;3.30;99.90;;;;;;5009219;28;20309;-64
2022/12/02 01:08:26;;;;;;;41.77;27.10;;;3.30;99.90;;;;;;5016909;28;20207;-64
2022/12/02 01:10:52;;;;;;;48.67;28.90;;;3.20;99.90;;;;;;5019026;28;20308;-64
2022/12/02 01:13:18;;;;;;;42.17;28.67;;;3.20;99.90;;;;;;5018894;28;20209;-65
2022/12/02 01:15:44;;;;;;;51.10;28.30;;;3.10;99.90;;;;;;5019043;28;21016;-65
2022/12/02 01:18:09;;;;;;;43.60;28.70;;;3.20;99.90;;;;;;5019422;28;20197;-64
2022/12/02 01:20:34;;;;;;;45.43;26.80;;;3.20;99.90;;;;;;5018233;28;20197;-65
2022/12/02 01:23:00;;;;;;;44.83;30.07;;;3.30;99.90;;;;;;5018359;28;20197;-64
2022/12/02 01:25:25;;;;;;;48.37;29.00;;;3.20;99.90;;;;;;5018969;28;20208;-63
2022/12/02 01:27:51;;;;;;;48.47;30.00;;;3.20;99.90;;;;;;5021238;28;20199;-61
2022/12/02 01:30:16;;;;;;;42.33;28.47;;;3.20;99.90;;;;;;5016284;28;20205;-63
2022/12/02 01:32:42;;;;;;;41.97;27.17;;;3.10;99.90;;;;;;5018013;28;20258;-63
2022/12/02 01:35:07;;;;;;;47.37;30.13;;;3.20;99.90;;;;;;5016463;28;20209;-65
2022/12/02 01:37:33;;;;;;;47.50;28.90;;;3.20;99.90;;;;;;5018730;28;20783;-64
2022/12/02 01:39:59;;;;;;;43.83;27.37;;;3.30;99.90;;;;;;5018424;28;20197;-64
2022/12/02 01:42:25;;;;;;;44.00;28.63;;;3.30;99.90;;;;;;5018448;28;20203;-63
2022/12/02 01:44:50;;;;;;;45.93;28.77;;;3.30;99.90;;;;;;5017942;28;20702;-64
2022/12/02 01:47:16;;;;;;;41.10;27.73;;;3.30;99.90;;;;;;5013880;28;20259;-63
2022/12/02 01:49:42;;;;;;;42.60;27.33;;;3.40;99.90;;;;;;5005600;28;20213;-63
2022/12/02 01:52:07;;;;;;;42.77;27.63;;;3.30;99.90;;;;;;5008066;28;20221;-64
2022/12/02 01:54:34;;;;;;;44.57;27.80;;;3.30;99.90;;;;;;5008027;28;20211;-63
2022/12/02 01:57:00;;;;;;;43.37;29.00;;;3.20;99.90;;;;;;5009439;28;20689;-63
2022/12/02 01:59:25;;;;;;;41.30;27.57;;;3.30;99.90;;;;;;5017847;28;20203;-63
2022/12/02 02:01:51;;;;;;;42.20;29.27;;;3.30;99.90;;;;;;5018154;28;20206;-62
2022/12/02 02:04:17;;;;;;;39.83;27.43;;;3.30;99.90;;;;;;5016364;28;20248;-64
2022/12/02 02:06:45;;;;;;;40.73;27.40;;;3.40;99.90;;;;;;5018074;28;20203;-63
2022/12/02 02:09:11;;;;;;;42.60;27.43;;;3.40;99.90;;;;;;5017705;28;20206;-63
2022/12/02 02:11:39;;;;;;;45.10;28.43;;;3.40;99.90;;;;;;5017944;28;20601;-65
2022/12/02 02:14:07;;;;;;;43.40;27.63;;;3.40;99.90;;;;;;5018717;28;20565;-66
2022/12/02 02:16:33;;;;;;;40.90;25.77;;;3.40;99.90;;;;;;5016337;28;20334;-65
2022/12/02 02:19:00;;;;;;;48.23;32.23;;;3.40;99.90;;;;;;5017242;28;20210;-65
2022/12/02 02:21:31;;;;;;;48.73;29.53;;;3.40;99.90;;;;;;5017560;28;20241;-65
2022/12/02 02:23:57;;;;;;;49.43;31.10;;;3.40;99.90;;;;;;5021580;28;20201;-65
2022/12/02 02:26:23;;;;;;;52.73;31.57;;;3.40;99.90;;;;;;5011604;28;20330;-62
2022/12/02 02:28:48;;;;;;;46.17;30.40;;;3.50;99.90;;;;;;5017815;28;20208;-66
2022/12/02 02:31:15;;;;;;;49.07;29.63;;;3.50;99.90;;;;;;5017319;28;20672;-64
2022/12/02 02:33:40;;;;;;;42.93;28.30;;;3.40;99.90;;;;;;5019310;28;20216;-63
2022/12/02 02:36:06;;;;;;;43.97;28.00;;;3.40;99.90;;;;;;5015435;28;20224;-64
2022/12/02 02:38:33;;;;;;;49.67;29.97;;;3.40;99.90;;;;;;5017365;28;20657;-63
2022/12/02 02:40:58;;;;;;;41.23;27.10;;;3.40;99.90;;;;;;5015275;28;20279;-64
2022/12/02 02:43:27;;;;;;;40.23;27.27;;;3.30;99.90;;;;;;5017367;28;20291;-63
2022/12/02 02:45:53;;;;;;;38.83;26.37;;;3.30;99.90;;;;;;5012612;28;20210;-63
2022/12/02 02:48:19;;;;;;;43.13;27.83;;;3.40;99.90;;;;;;5017504;28;20199;-63
2022/12/02 02:50:47;;;;;;;41.97;28.00;;;3.40;99.90;;;;;;5017318;28;20247;-64
2022/12/02 02:53:15;;;;;;;44.43;27.97;;;3.40;99.90;;;;;;5017378;28;20201;-64
2022/12/02 02:55:41;;;;;;;40.87;27.33;;;3.40;99.90;;;;;;5024704;28;20240;-62
2022/12/02 02:58:12;;;;;;;44.60;27.23;;;3.50;99.90;;;;;;5024649;28;20221;-62
2022/12/02 03:00:46;;;;;;;41.53;27.30;;;3.50;99.90;;;;;;5024383;28;20220;-62
2022/12/02 03:03:13;;;;;;;45.50;28.03;;;3.50;99.90;;;;;;5024624;28;20532;-61
2022/12/02 03:05:39;;;;;;;44.47;27.57;;;3.40;99.90;;;;;;5024548;28;20594;-61
2022/12/02 03:08:06;;;;;;;46.93;26.97;;;3.40;99.90;;;;;;5024228;28;20652;-63
2022/12/02 03:10:32;;;;;;;38.47;26.30;;;3.40;99.90;;;;;;5024545;28;20211;-61
2022/12/02 03:12:58;;;;;;;46.87;27.57;;;3.40;99.90;;;;;;5024523;28;20213;-62
2022/12/02 03:15:26;;;;;;;43.77;27.53;;;3.40;99.90;;;;;;5024236;28;21014;-61
2022/12/02 03:17:52;;;;;;;41.97;27.57;;;3.40;99.90;;;;;;5024286;28;20291;-62
2022/12/02 03:20:18;;;;;;;41.97;27.80;;;3.40;99.90;;;;;;5024310;28;20246;-63
2022/12/02 03:22:44;;;;;;;38.97;26.07;;;3.40;99.90;;;;;;5024608;28;20600;-63
2022/12/02 03:25:10;;;;;;;45.00;26.10;;;3.40;99.90;;;;;;5024491;28;20185;-62
2022/12/02 03:27:36;;;;;;;44.43;28.40;;;3.40;99.90;;;;;;5024202;28;20185;-62
2022/12/02 03:30:02;;;;;;;40.43;26.40;;;3.40;99.90;;;;;;5024056;28;20244;-63
2022/12/02 03:32:28;;;;;;;46.80;28.30;;;3.30;99.90;;;;;;5022278;28;20187;-62
2022/12/02 03:34:54;;;;;;;44.30;27.90;;;3.20;99.90;;;;;;5008321;28;20563;-62
2022/12/02 03:37:21;;;;;;;44.67;27.07;;;3.30;99.90;;;;;;5004011;28;20213;-62
2022/12/02 03:39:47;;;;;;;41.93;26.63;;;3.30;99.90;;;;;;5006507;28;20227;-62
2022/12/02 03:42:13;;;;;;;49.47;30.27;;;3.40;99.90;;;;;;5005608;28;20929;-62
2022/12/02 03:44:38;;;;;;;44.43;28.33;;;3.30;99.90;;;;;;5007389;28;20644;-63
2022/12/02 03:47:04;;;;;;;44.50;29.03;;;3.30;99.90;;;;;;5008776;28;20200;-63
2022/12/02 03:49:32;;;;;;;40.57;26.87;;;3.30;99.90;;;;;;5005481;28;20205;-62
2022/12/02 03:51:58;;;;;;;48.10;28.03;;;3.30;99.90;;;;;;5005352;28;20207;-62
2022/12/02 03:54:23;;;;;;;44.43;29.73;;;3.30;99.90;;;;;;5005957;28;20209;-63
2022/12/02 03:56:49;;;;;;;41.40;26.30;;;3.30;99.90;;;;;;5006148;28;20226;-63
2022/12/02 03:59:22;;;;;;;49.13;27.20;;;3.30;99.90;;;;;;5017593;28;20205;-63
2022/12/02 04:01:48;;;;;;;42.13;27.07;;;3.30;99.90;;;;;;5010577;28;20336;-63
2022/12/02 04:04:14;;;;;;;41.90;26.93;;;3.30;99.90;;;;;;5008983;28;20249;-63
2022/12/02 04:06:40;;;;;;;43.13;27.07;;;3.30;99.90;;;;;;5016247;28;20251;-63
2022/12/02 04:09:05;;;;;;;44.73;26.87;;;3.30;99.90;;;;;;5017227;28;20205;-63
2022/12/02 04:11:30;;;;;;;43.23;27.73;;;3.20;99.90;;;;;;5014085;28;20676;-63
2022/12/02 04:13:56;;;;;;;40.43;25.27;;;3.20;99.90;;;;;;5019625;28;20201;-63
2022/12/02 04:16:21;;;;;;;50.17;27.33;;;3.30;99.90;;;;;;5019813;28;20222;-62
2022/12/02 04:18:47;;;;;;;42.67;26.70;;;3.30;99.90;;;;;;5018402;28;20804;-62
2022/12/02 04:21:12;;;;;;;37.57;26.77;;;3.30;99.90;;;;;;5019754;28;20285;-62
2022/12/02 04:23:38;;;;;;;43.43;25.90;;;3.30;99.90;;;;;;5008534;28;20773;-62
2022/12/02 04:26:04;;;;;;;40.30;26.63;;;3.40;99.90;;;;;;5009978;28;20601;-60
2022/12/02 04:28:30;;;;;;;34.77;26.07;;;3.40;99.90;;;;;;5010137;28;20620;-60
2022/12/02 04:30:55;;;;;;;38.87;25.80;;;3.40;99.90;;;;;;5009419;28;20205;-60
2022/12/02 04:33:21;;;;;;;40.33;26.43;;;3.40;99.90;;;;;;5012054;28;20299;-60
2022/12/02 04:35:46;;;;;;;38.47;24.83;;;3.50;99.90;;;;;;5011517;28;20970;-61
2022/12/02 04:38:12;;;;;;;42.53;27.13;;;3.50;99.90;;;;;;5006551;28;20287;-60
2022/12/02 04:40:38;;;;;;;38.20;24.97;;;3.50;99.90;;;;;;5012540;28;20202;-61
2022/12/02 04:43:03;;;;;;;41.23;26.07;;;3.50;99.90;;;;;;5010217;28;20682;-60
2022/12/02 04:45:29;;;;;;;38.00;25.67;;;3.50;99.90;;;;;;5008689;28;20952;-61
2022/12/02 04:47:54;;;;;;;36.70;24.43;;;3.60;99.90;;;;;;5015025;28;20202;-61
2022/12/02 04:50:20;;;;;;;37.73;25.70;;;3.40;99.90;;;;;;5019159;28;20195;-61
2022/12/02 04:52:45;;;;;;;36.27;24.10;;;3.40;99.90;;;;;;5019536;28;20289;-61
2022/12/02 04:55:11;;;;;;;39.03;25.43;;;3.40;99.90;;;;;;5018852;28;20237;-61
2022/12/02 04:57:36;;;;;;;36.20;24.93;;;3.50;99.90;;;;;;5018256;28;20252;-60
2022/12/02 05:00:03;;;;;;;38.60;24.37;;;3.50;99.90;;;;;;5016459;28;20209;-61
2022/12/02 05:02:29;;;;;;;37.80;25.33;;;3.50;99.90;;;;;;5019409;28;20215;-61
2022/12/02 05:04:54;;;;;;;35.80;22.43;;;3.50;99.90;;;;;;5018946;28;20499;-62
2022/12/02 05:07:20;;;;;;;34.23;23.20;;;3.40;99.90;;;;;;5018938;28;20288;-62
2022/12/02 05:09:45;;;;;;;33.50;23.00;;;3.40;99.90;;;;;;5019137;28;20915;-62
2022/12/02 05:12:10;;;;;;;35.33;22.53;;;3.30;99.90;;;;;;5016995;28;20202;-63
2022/12/02 05:14:36;;;;;;;32.83;22.53;;;3.30;99.90;;;;;;5019180;28;20672;-64
2022/12/02 05:17:01;;;;;;;35.07;22.27;;;3.40;99.90;;;;;;5017895;28;20242;-64
2022/12/02 05:19:27;;;;;;;35.07;23.07;;;3.40;99.90;;;;;;5020784;28;20283;-64
2022/12/02 05:21:52;;;;;;;33.17;22.73;;;3.40;99.90;;;;;;5016230;28;20198;-63
2022/12/02 05:24:18;;;;;;;35.57;23.33;;;3.40;99.90;;;;;;5018161;28;20283;-63
2022/12/02 05:26:43;;;;;;;35.27;22.80;;;3.40;99.90;;;;;;5017118;28;20210;-65
2022/12/02 05:29:09;;;;;;;31.73;21.20;;;3.40;99.90;;;;;;5018724;28;20199;-62
2022/12/02 05:31:34;;;;;;;34.37;21.93;;;3.30;99.90;;;;;;5018703;28;20712;-63
2022/12/02 05:34:00;;;;;;;33.53;21.70;;;3.20;99.90;;;;;;5018744;28;20205;-61
2022/12/02 05:36:25;;;;;;;33.23;21.23;;;3.20;99.90;;;;;;5018806;28;20227;-63
2022/12/02 05:38:50;;;;;;;29.43;20.23;;;3.20;99.90;;;;;;5020508;28;20206;-63
2022/12/02 05:41:16;;;;;;;27.80;20.07;;;3.20;99.90;;;;;;5018887;28;20559;-63
2022/12/02 05:43:42;;;;;;;29.03;20.00;;;3.30;99.90;;;;;;5016750;28;20214;-63
2022/12/02 05:46:16;;;;;;;31.67;21.70;;;3.30;99.90;;;;;;5018350;28;20205;-64
2022/12/02 05:48:43;;;;;;;31.37;21.83;;;3.30;99.90;;;;;;5021520;28;20205;-64
2022/12/02 05:51:15;;;;;;;28.53;19.77;;;3.40;99.90;;;;;;5016805;28;20232;-63
2022/12/02 05:53:42;;;;;;;28.73;19.47;;;3.40;99.90;;;;;;5014109;28;20271;-63
2022/12/02 05:56:25;;;;;;;27.13;19.10;;;3.40;99.90;;;;;;5016697;28;20371;-63
2022/12/02 05:58:52;;;;;;;24.53;19.20;;;3.30;99.90;;;;;;5008062;28;20557;-63
2022/12/02 06:01:19;;;;;;;26.43;18.27;;;3.30;99.90;;;;;;5018092;28;21388;-64
2022/12/02 06:03:45;;;;;;;27.47;18.73;;;3.30;99.90;;;;;;5017549;28;20190;-64
2022/12/02 06:06:11;;;;;;;29.23;20.17;;;3.30;99.90;;;;;;5016770;28;20335;-64
2022/12/02 06:08:37;;;;;;;28.80;19.00;;;3.30;99.90;;;;;;5015806;28;20213;-64
2022/12/02 06:11:13;;;;;;;26.43;18.40;;;3.20;99.90;;;;;;5021090;28;20719;-69
2022/12/02 06:13:38;;;;;;;25.60;18.17;;;3.20;99.90;;;;;;5015856;28;20197;-69
2022/12/02 06:16:11;;;;;;;23.23;18.03;;;3.20;99.90;;;;;;5016915;28;20547;-69
2022/12/02 06:18:38;;;;;;;24.77;18.63;;;3.10;99.90;;;;;;5008563;28;20255;-64
2022/12/02 06:21:10;;;;;;;27.43;19.07;;;3.10;99.90;;;;;;5017436;28;20584;-64
2022/12/02 06:23:42;;;;;;;24.70;18.53;;;3.00;99.90;;;;;;5017296;28;20213;-64
2022/12/02 06:26:08;;;;;;;23.00;17.23;;;3.00;99.90;;;;;;5016505;28;20214;-64
2022/12/02 06:28:38;;;;;;;26.70;20.00;;;3.00;99.90;;;;;;5017305;28;20415;-69
2022/12/02 06:31:09;;;;;;;24.90;17.83;;;2.90;99.90;;;;;;5017192;28;20282;-55
2022/12/02 06:33:38;;;;;;;27.67;19.13;;;2.90;99.90;;;;;;5016961;28;20550;-55
2022/12/02 06:36:11;;;;;;;26.47;18.90;;;2.90;99.90;;;;;;5012807;28;20199;-55
2022/12/02 06:38:49;;;;;;;27.07;17.87;;;2.90;99.90;;;;;;5014640;28;20210;-55
2022/12/02 06:41:24;;;;;;;25.93;18.17;;;2.90;99.90;;;;;;5016610;28;20239;-54
2022/12/02 06:46:37;;;;;;;23.73;17.53;;;2.90;99.90;;;;;;5012515;28;21020;-54
2022/12/02 06:49:18;;;;;;;26.93;18.13;;;2.80;99.90;;;;;;5016991;28;20209;-52
2022/12/02 06:51:43;;;;;;;25.70;17.60;;;2.90;99.90;;;;;;5021648;28;20213;-52
2022/12/02 06:54:19;;;;;;;21.13;16.60;;;3.00;99.90;;;;;;5013052;28;20311;-53
2022/12/02 06:56:45;;;;;;;24.80;17.53;;;3.00;99.90;;;;;;5017720;28;20231;-54
2022/12/02 06:59:13;;;;;;;23.80;18.30;;;3.00;99.90;;;;;;5014040;28;20197;-54
2022/12/02 07:01:41;;;;;;;24.87;18.03;;;3.00;99.90;;;;;;5018298;28;20230;-54
2022/12/02 07:04:28;;;;;;;26.27;18.10;;;2.80;99.90;;;;;;5014762;28;20673;-54
2022/12/02 07:06:58;;;;;;;26.17;17.37;;;2.90;99.90;;;;;;5017092;28;20380;-54
2022/12/02 07:09:30;;;;;;;27.43;18.03;;;2.90;99.90;;;;;;5018639;28;20288;-53
2022/12/02 07:11:58;;;;;;;28.70;19.53;;;2.90;99.90;;;;;;5016782;28;20336;-54
2022/12/02 07:14:45;;;;;;;24.20;17.73;;;3.00;99.90;;;;;;5016797;28;20216;-54
2022/12/02 07:17:24;;;;;;;28.17;17.73;;;3.00;99.90;;;;;;5012751;28;20213;-54
2022/12/02 07:19:58;;;;;;;28.77;18.53;;;2.90;99.90;;;;;;5016551;28;20199;-54
2022/12/02 07:22:49;;;;;;;27.67;17.40;;;2.90;99.90;;;;;;5023090;28;20224;-55
2022/12/02 07:25:15;;;;;;;27.57;18.80;;;2.80;99.90;;;;;;5009969;28;20695;-53
2022/12/02 07:27:45;;;;;;;26.23;18.83;;;2.90;99.90;;;;;;5000326;28;20292;-54
2022/12/02 07:30:33;;;;;;;27.63;18.47;;;2.80;99.90;;;;;;5006344;28;20202;-57
2022/12/02 07:32:59;;;;;;;28.57;19.60;;;2.90;99.90;;;;;;5005689;28;20647;-57
2022/12/02 07:35:26;;;;;;;24.30;17.03;;;3.00;99.90;;;;;;5006301;28;20240;-57
2022/12/02 07:37:52;;;;;;;25.20;18.73;;;3.00;99.90;;;;;;5005962;28;20220;-57
2022/12/02 07:40:18;;;;;;;30.00;18.50;;;3.00;99.90;;;;;;5006217;28;20227;-57
2022/12/02 07:42:44;;;;;;;27.23;18.10;;;3.00;99.90;;;;;;5006049;28;20818;-58
2022/12/02 07:45:14;;;;;;;28.27;18.13;;;3.00;99.90;;;;;;5005234;28;20312;-75
2022/12/02 07:47:39;;;;;;;27.10;17.80;;;3.00;99.90;;;;;;5006678;28;20236;-66
2022/12/02 07:50:06;;;;;;;27.13;17.50;;;3.10;99.90;;;;;;5003055;28;20740;-74
2022/12/02 07:52:32;;;;;;;21.83;16.13;;;3.10;99.90;;;;;;5009718;28;20209;-65
2022/12/02 07:54:57;;;;;;;24.83;17.80;;;3.10;99.90;;;;;;5016945;28;20216;-69
2022/12/02 07:57:23;;;;;;;25.50;16.23;;;3.20;99.90;;;;;;5000773;28;20261;-68
2022/12/02 07:59:49;;;;;;;26.23;17.20;;;3.20;99.90;;;;;;5012141;28;20802;-76
2022/12/02 08:02:15;;;;;;;23.83;17.10;;;3.20;99.90;;;;;;5010806;28;20206;-58
2022/12/02 08:04:40;;;;;;;26.03;17.90;;;3.30;99.90;;;;;;5003584;28;20686;-59
2022/12/02 08:07:05;;;;;;;25.33;16.93;;;3.40;99.90;;;;;;5008590;28;20203;-57
2022/12/02 08:09:31;;;;;;;22.97;16.60;;;3.40;99.90;;;;;;5003332;28;20621;-57
2022/12/02 08:11:56;;;;;;;21.13;15.30;;;3.40;99.90;;;;;;5002227;28;20212;-59
2022/12/02 08:14:22;;;;;;;23.50;17.00;;;3.40;99.90;;;;;;5008886;28;20218;-58
2022/12/02 08:16:47;;;;;;;28.30;17.97;;;3.30;99.90;;;;;;5007522;28;20978;-58
2022/12/02 08:19:13;;;;;;;25.67;16.83;;;3.30;99.90;;;;;;5014006;28;20277;-57
2022/12/02 08:21:39;;;;;;;25.37;16.00;;;3.30;99.90;;;;;;5004173;28;20188;-60
2022/12/02 08:24:06;;;;;;;24.13;16.73;;;3.30;99.90;;;;;;5004332;28;20212;-57
2022/12/02 08:26:31;;;;;;;32.10;19.63;;;3.30;99.90;;;;;;5005006;28;20690;-57
2022/12/02 08:28:57;;;;;;;21.97;16.40;;;3.30;99.90;;;;;;5005470;28;20206;-67
2022/12/02 08:31:23;;;;;;;22.90;16.47;;;3.30;99.90;;;;;;5005273;28;20237;-65
2022/12/02 08:33:49;;;;;;;22.90;15.67;;;3.30;99.90;;;;;;4999758;28;20221;-62
2022/12/02 08:36:15;;;;;;;29.33;17.80;;;3.30;99.90;;;;;;5007609;28;20223;-63
2022/12/02 08:38:41;;;;;;;25.93;17.77;;;3.30;99.90;;;;;;4998056;28;20192;-63
2022/12/02 08:41:06;;;;;;;27.73;18.27;;;3.30;99.90;;;;;;4996031;28;20199;-63
2022/12/02 08:43:32;;;;;;;23.33;16.37;;;3.30;99.90;;;;;;4996103;28;20833;-63
2022/12/02 08:45:58;;;;;;;26.40;17.13;;;3.30;99.90;;;;;;4999527;28;20203;-63
2022/12/02 08:48:23;;;;;;;24.77;17.37;;;3.30;99.90;;;;;;5001126;28;20204;-63
2022/12/02 08:50:49;;;;;;;24.90;16.37;;;3.40;99.90;;;;;;4993977;28;20714;-63
2022/12/02 08:53:14;;;;;;;27.20;18.50;;;3.30;99.90;;;;;;4996370;28;20747;-63
2022/12/02 08:55:40;;;;;;;25.17;17.17;;;3.40;99.90;;;;;;4999379;28;20243;-63
2022/12/02 08:58:05;;;;;;;29.90;17.27;;;3.40;99.90;;;;;;4998045;28;20223;-63
2022/12/02 09:00:31;;;;;;;23.97;16.50;;;3.40;99.90;;;;;;5001040;28;20195;-63
2022/12/02 09:02:56;;;;;;;25.20;15.97;;;3.40;99.90;;;;;;5017702;28;20196;-65
2022/12/02 09:05:22;;;;;;;23.80;17.63;;;3.40;99.90;;;;;;5024745;28;20196;-64
2022/12/02 09:07:48;;;;;;;25.47;18.90;;;3.40;99.90;;;;;;5024895;28;20295;-65
2022/12/02 09:10:14;;;;;;;24.80;18.20;;;3.40;99.90;;;;;;5024281;28;20971;-64
2022/12/02 09:12:39;;;;;;;27.90;18.20;;;3.40;99.90;;;;;;5022785;28;20660;-65
2022/12/02 09:15:05;;;;;;;23.13;15.37;;;3.40;99.90;;;;;;5014573;28;20213;-65
2022/12/02 09:17:31;;;;;;;27.30;17.80;;;3.50;99.90;;;;;;5005008;28;20702;-64
2022/12/02 09:19:56;;;;;;;27.37;16.40;;;3.50;99.90;;;;;;5010412;28;20202;-64
2022/12/02 09:22:22;;;;;;;28.83;18.90;;;3.50;99.90;;;;;;5013376;28;20218;-64
2022/12/02 09:24:47;;;;;;;25.43;16.30;;;3.50;99.90;;;;;;5012635;28;21370;-66
2022/12/02 09:27:13;;;;;;;23.53;16.03;;;3.40;99.90;;;;;;5008170;28;20293;-69
2022/12/02 09:29:38;;;;;;;24.30;17.27;;;3.40;99.90;;;;;;5012858;28;20688;-64
2022/12/02 09:32:04;;;;;;;27.50;17.23;;;3.40;99.90;;;;;;5006596;28;20547;-64
2022/12/02 09:34:29;;;;;;;29.10;17.87;;;3.40;99.90;;;;;;5002518;28;20237;-64
2022/12/02 09:36:55;;;;;;;24.77;16.90;;;3.50;99.90;;;;;;5000399;28;20578;-65
2022/12/02 09:39:20;;;;;;;29.73;17.73;;;3.50;99.90;;;;;;5014794;28;20204;-67
2022/12/02 09:41:46;;;;;;;23.53;17.00;;;3.60;99.90;;;;;;5018059;28;20202;-67
2022/12/02 09:44:11;;;;;;;28.33;17.40;;;3.60;99.90;;;;;;5018696;28;20290;-66
2022/12/02 09:46:37;;;;;;;26.67;18.93;;;3.50;99.90;;;;;;5014260;28;20205;-67
2022/12/02 09:49:03;;;;;;;23.43;17.60;;;3.60;99.90;;;;;;5017256;28;20202;-67
2022/12/02 09:51:29;;;;;;;24.10;17.87;;;3.60;99.90;;;;;;5019482;28;20657;-67
2022/12/02 09:53:56;;;;;;;23.80;16.63;;;3.60;99.90;;;;;;5018410;28;20225;-67
2022/12/02 09:56:22;;;;;;;27.47;17.37;;;3.50;99.90;;;;;;5009999;28;20235;-68
2022/12/02 09:58:50;;;;;;;29.53;17.50;;;3.50;99.90;;;;;;5022887;28;20854;-67
2022/12/02 10:01:16;;;;;;;28.30;19.17;;;3.50;99.90;;;;;;5016868;28;20221;-67
2022/12/02 10:03:44;;;;;;;25.60;18.10;;;3.50;99.90;;;;;;5009850;28;20194;-66
2022/12/02 10:06:22;;;;;;;24.83;18.03;;;3.50;99.90;;;;;;5018910;28;20215;-61
2022/12/02 10:08:47;;;;;;;28.17;16.93;;;3.50;99.90;;;;;;5009593;28;20205;-66
2022/12/02 10:11:28;;;;;;;26.70;17.53;;;3.50;99.90;;;;;;5021002;28;20310;-63
2022/12/02 10:13:55;;;;;;;25.60;18.00;;;3.50;99.90;;;;;;5008704;28;20252;-64
2022/12/02 10:16:20;;;;;;;29.33;19.07;;;3.50;99.90;;;;;;5013133;28;20203;-64
2022/12/02 10:18:46;;;;;;;33.77;18.80;;;3.50;99.90;;;;;;5018817;28;20208;-63
2022/12/02 10:21:12;;;;;;;25.10;17.43;;;3.50;99.90;;;;;;5013763;28;20479;-64
2022/12/02 10:23:56;;;;;;;28.63;18.83;;;3.50;99.90;;;;;;5018118;28;20730;-63
2022/12/02 10:26:22;;;;;;;30.17;18.93;;;3.50;99.90;;;;;;5010303;28;20286;-63
2022/12/02 10:29:03;;;;;;;30.77;17.70;;;3.50;99.90;;;;;;5010672;28;20499;-65
2022/12/02 10:31:29;;;;;;;27.50;18.23;;;3.60;99.90;;;;;;5006619;28;20686;-65
2022/12/02 10:34:01;;;;;;;27.20;17.40;;;3.60;99.90;;;;;;5006973;28;20253;-65
2022/12/02 10:36:34;;;;;;;32.03;18.13;;;3.60;99.90;;;;;;5006566;28;20300;-65
2022/12/02 10:39:24;;;;;;;26.37;16.70;;;3.60;99.90;;;;;;5006073;28;20261;-65
2022/12/02 10:42:09;;;;;;;25.37;17.43;;;3.60;99.90;;;;;;5010070;28;20200;-65
2022/12/02 10:44:41;;;;;;;28.60;18.30;;;3.50;99.90;;;;;;5004948;28;20204;-64
2022/12/02 10:47:18;;;;;;;25.03;16.23;;;3.50;99.90;;;;;;5003839;28;20282;-64
2022/12/02 10:49:47;;;;;;;31.93;18.03;;;3.50;99.90;;;;;;5005744;28;20783;-64
2022/12/02 10:52:14;;;;;;;30.67;18.70;;;3.40;99.90;;;;;;5010812;28;20198;-65
2022/12/02 10:54:45;;;;;;;31.37;18.17;;;3.40;99.90;;;;;;5015730;28;20779;-65
2022/12/02 10:57:21;;;;;;;30.23;19.90;;;3.30;99.90;;;;;;5015900;28;20788;-65
2022/12/02 10:59:46;;;;;;;34.97;21.43;;;3.40;99.90;;;;;;5016273;28;20198;-65
2022/12/02 11:02:37;;;;;;;27.37;19.00;;;3.40;99.90;;;;;;5014320;28;20306;-66
2022/12/02 11:05:20;;;;;;;39.93;22.77;;;3.40;99.90;;;;;;5018702;28;20683;-65
2022/12/02 11:07:50;;;;;;;32.67;20.97;;;3.40;99.90;;;;;;5013699;28;20597;-65
2022/12/02 11:10:20;;;;;;;34.60;21.73;;;3.40;99.90;;;;;;5014238;28;20207;-65
2022/12/02 11:12:59;;;;;;;32.57;19.43;;;3.40;99.90;;;;;;5015264;28;20265;-64
2022/12/02 11:15:43;;;;;;;37.57;22.37;;;3.50;99.90;;;;;;5019552;28;20585;-64
2022/12/02 11:18:29;;;;;;;34.77;22.03;;;3.50;99.90;;;;;;5012518;28;20283;-64
2022/12/02 11:21:26;;;;;;;34.50;21.93;;;3.50;99.90;;;;;;5015285;28;20206;-63
2022/12/02 11:24:23;;;;;;;37.53;23.10;;;3.50;99.90;;;;;;5018172;28;20249;-65
2022/12/02 11:27:03;;;;;;;42.97;22.67;;;3.50;99.90;;;;;;5008343;28;20615;-64
2022/12/02 11:29:34;;;;;;;34.67;22.20;;;3.40;99.90;;;;;;5016986;28;20205;-64
2022/12/02 11:32:21;;;;;;;40.80;23.70;;;3.40;99.90;;;;;;5010211;28;20207;-65
2022/12/02 11:35:00;;;;;;;40.80;23.07;;;3.40;99.90;;;;;;5014461;28;20208;-65
2022/12/02 11:37:28;;;;;;;37.57;22.97;;;3.30;99.90;;;;;;5015159;28;20217;-64
2022/12/02 11:39:57;;;;;;;38.90;24.70;;;3.30;99.90;;;;;;5013741;28;20553;-65
2022/12/02 11:42:25;;;;;;;35.50;23.10;;;3.30;99.90;;;;;;5014863;28;20236;-64
2022/12/02 11:44:51;;;;;;;39.60;24.77;;;3.30;99.90;;;;;;5017794;28;20413;-64
2022/12/02 11:47:31;;;;;;;37.30;22.10;;;3.30;99.90;;;;;;5009360;28;20203;-64
2022/12/02 11:50:17;;;;;;;39.20;22.93;;;3.30;99.90;;;;;;5007616;28;20276;-65
2022/12/02 11:52:49;;;;;;;38.00;22.23;;;3.20;99.90;;;;;;5009550;28;20229;-64
2022/12/02 11:55:31;;;;;;;39.30;23.77;;;3.20;99.90;;;;;;5014859;28;20241;-67
2022/12/02 11:57:58;;;;;;;38.00;23.60;;;3.20;99.90;;;;;;5014614;28;20225;-68
2022/12/02 12:00:30;;;;;;;39.50;23.13;;;3.20;99.90;;;;;;5016960;28;20244;-64
2022/12/02 12:03:17;;;;;;;37.63;23.47;;;3.20;99.90;;;;;;5008905;28;20197;-64
2022/12/02 12:06:04;;;;;;;43.80;25.20;;;3.20;99.90;;;;;;5015854;28;21031;-65
2022/12/02 12:08:30;;;;;;;41.63;24.50;;;3.20;99.90;;;;;;5016145;28;20198;-66
2022/12/02 12:11:29;;;;;;;41.53;23.67;;;3.20;99.90;;;;;;5007664;28;20203;-66
2022/12/02 12:14:00;;;;;;;37.87;22.33;;;3.20;99.90;;;;;;5003651;28;20208;-65
2022/12/02 12:16:31;;;;;;;38.67;23.50;;;3.10;99.90;;;;;;5006746;28;20199;-66
2022/12/02 12:18:58;;;;;;;37.03;21.47;;;3.10;99.90;;;;;;5002479;28;20202;-66
2022/12/02 12:21:30;;;;;;;41.93;24.63;;;3.10;99.90;;;;;;5007796;28;20229;-65
2022/12/02 12:24:16;;;;;;;39.40;24.27;;;3.10;99.90;;;;;;5015952;28;20287;-66
2022/12/02 12:26:43;;;;;;;41.67;23.93;;;3.10;99.90;;;;;;5013975;28;20202;-66
2022/12/02 12:29:08;;;;;;;39.53;25.13;;;3.10;99.90;;;;;;5016401;28;20199;-65
2022/12/02 12:31:34;;;;;;;43.53;24.47;;;3.10;99.90;;;;;;5013379;28;20206;-65
2022/12/02 12:33:59;;;;;;;43.50;26.43;;;3.10;99.90;;;;;;5017130;28;20228;-66
2022/12/02 12:36:25;;;;;;;42.70;25.93;;;3.10;99.90;;;;;;5019351;28;20207;-66
2022/12/02 12:38:50;;;;;;;40.90;24.77;;;3.20;99.90;;;;;;5022037;28;20709;-66
2022/12/02 12:41:16;;;;;;;45.80;27.13;;;3.10;99.90;;;;;;5016103;28;20210;-66
2022/12/02 12:43:41;;;;;;;40.67;24.43;;;3.10;99.90;;;;;;5019242;28;20199;-66
2022/12/02 12:46:07;;;;;;;41.57;25.47;;;3.10;99.90;;;;;;5017273;28;20210;-67
2022/12/02 12:48:32;;;;;;;38.67;24.17;;;3.10;99.90;;;;;;5018736;28;20232;-67